Terminal Aerodrome Forecast
Issued by NWS

Home | Current Version | Previous Version | Text Only | Print | Product List | Glossary On
Versions: 1 2 3 4 5 6 7 8 9 10 11 12 13 14 15 16 17 18 19 20 21 22 23 24
000
FTUS41 KPBZ 291100
TAFLBE
TAF
KLBE 291129Z 2912/3012 VRB03KT P6SM BKN120
     FM291800 18011G18KT 5SM -SHRASN OVC020
     FM292100 20012G19KT 2SM -SHRASN BR OVC008
     FM300300 27012G22KT 2SM -SHSN OVC008
     FM301000 30013G24KT 2SM -SHSN OVC006=

USA.gov is the U.S. government's official web portal to all federal, state and local government web resources and services.